METAR Data
IDs: Format: Raw Decoded Include TAF

Data at: 0819 UTC 30 Oct 2020

PTKK 300750Z VRB03KT 15SM FEW014 SCT280 29/25 A2976 RMK SLP079 T02880250